This is the latest recevied weather packets stored in our database for station/object N4AR. If no packets are shown the sender has not sent any weather packets the latest 10 day(s).
| Time | Temp. | Humidity | Pressure | Rain* | Wind** | Luminosity | Snow |
|---|---|---|---|---|---|---|---|
| 1777665778 | 19.44° C | 42% | 1013.6 hPa | 0 mm | - | 580 W/m² | - |
| 1777665476 | 20° C | 39% | 1013.5 hPa | 0 mm | - | 748 W/m² | - |
| 1777665171 | 19.44° C | 42% | 1013.5 hPa | 0 mm | - | 625 W/m² | - |
| 1777664868 | 18.33° C | 46% | 1013.6 hPa | 0 mm | - | 348 W/m² | - |
| 1777664564 | 19.44° C | 41% | 1013.7 hPa | 0 mm | - | 410 W/m² | - |
| 1777664260 | 19.44° C | 41% | 1013.9 hPa | 0 mm | - | 560 W/m² | - |
| 1777663959 | 19.44° C | 42% | 1013.8 hPa | 0 mm | - | 611 W/m² | - |
| 1777663656 | 18.89° C | 44% | 1013.7 hPa | 0 mm | - | 553 W/m² | - |
| 1777663353 | 20° C | 40% | 1013.9 hPa | 0 mm | - | 868 W/m² | - |
| 1777663050 | 19.44° C | 41% | 1014.1 hPa | 0 mm | - | 633 W/m² | - |
| 1777662747 | 20° C | 42% | 1014.3 hPa | 0 mm | - | 678 W/m² | - |
| 1777662444 | 19.44° C | 42% | 1014.2 hPa | 0 mm | - | 1107 W/m² | - |
| 1777662139 | 18.89° C | 43% | 1014.3 hPa | 0 mm | - | 815 W/m² | - |
| 1777661835 | 18.89° C | 42% | 1014.7 hPa | 0 mm | - | 969 W/m² | - |
| 1777661531 | 18.89° C | 44% | 1014.6 hPa | 0 mm | - | 931 W/m² | - |
| 1777661227 | 20° C | 40% | 1014.8 hPa | 0 mm | - | 875 W/m² | - |
| 1777660923 | 20° C | 41% | 1014.8 hPa | 0 mm | - | 883 W/m² | - |
| 1777660619 | 18.89° C | 40% | 1014.8 hPa | 0 mm | - | 890 W/m² | - |
| 1777660316 | 18.89° C | 40% | 1015.1 hPa | 0 mm | - | 898 W/m² | - |
| 1777660012 | 18.89° C | 41% | 1015.1 hPa | 0 mm | - | 902 W/m² | - |
| 1777659709 | 18.33° C | 39% | 1015.1 hPa | 0 mm | - | 905 W/m² | - |
| 1777659406 | 20° C | 37% | 1015.3 hPa | 0 mm | - | 913 W/m² | - |
| 1777659103 | 19.44° C | 40% | 1015.1 hPa | 0 mm | - | 931 W/m² | - |
| 1777658801 | 18.33° C | 40% | 1015.1 hPa | 0 mm | - | 929 W/m² | - |
| 1777658497 | 18.89° C | 37% | 1015.2 hPa | 0 mm | - | 909 W/m² | - |
* Rain latest hour (hover to see other rain measurements)
** Current wind speed in m/s (hover to see current wind gust speed)